createdAt,value
2023-04-20T00:01:26.839Z,98978.72
2023-04-20T00:04:12.088Z,98966.16
2023-04-20T00:06:58.185Z,98965.75
2023-04-20T00:09:42.862Z,98967.38
2023-04-20T00:12:27.724Z,98967.19
2023-04-20T00:15:12.277Z,98965.25
2023-04-20T00:17:56.884Z,98975.66
2023-04-20T00:20:41.932Z,98972.31
2023-04-20T00:23:27.020Z,98967.81
2023-04-20T00:26:11.940Z,98965.03
2023-04-20T00:28:57.082Z,98974.69
2023-04-20T00:31:42.086Z,98971.50
2023-04-20T00:34:26.949Z,98969.34
2023-04-20T00:37:12.015Z,98966.94
2023-04-20T00:39:57.357Z,98969.84
2023-04-20T00:42:43.088Z,98964.97
2023-04-20T00:45:28.177Z,98961.03
2023-04-20T00:48:13.338Z,98970.69
2023-04-20T00:50:58.502Z,98962.06
2023-04-20T00:53:44.318Z,98970.72
2023-04-20T00:56:29.138Z,98971.91
2023-04-20T00:59:14.829Z,98965.75
2023-04-20T01:01:59.943Z,98972.81
2023-04-20T01:04:46.776Z,98978.31
2023-04-20T01:07:31.939Z,98969.63
2023-04-20T01:10:16.787Z,98970.41
2023-04-20T01:13:02.750Z,98974.97
2023-04-20T01:15:47.723Z,98967.69
2023-04-20T01:18:47.757Z,98964.75
2023-04-20T01:21:32.476Z,98967.34
2023-04-20T01:24:17.569Z,98971.28
2023-04-20T01:27:02.587Z,98962.66
2023-04-20T01:29:47.834Z,98966.84
2023-04-20T01:32:32.954Z,98961.47
2023-04-20T01:35:17.798Z,98964.06
2023-04-20T01:38:02.671Z,98968.84
2023-04-20T01:40:49.475Z,98971.22
2023-04-20T01:43:36.273Z,98969.88
2023-04-20T01:46:21.189Z,98965.97
2023-04-20T01:49:06.661Z,98958.91
2023-04-20T01:51:51.648Z,98964.25
2023-04-20T01:54:36.941Z,98961.50
2023-04-20T01:57:21.543Z,98962.09
2023-04-20T02:00:06.362Z,98957.19
2023-04-20T02:02:58.820Z,98959.75
2023-04-20T02:05:43.806Z,98963.06
2023-04-20T02:08:28.585Z,98958.75
2023-04-20T02:11:13.592Z,98962.09
2023-04-20T02:13:58.596Z,98958.75
2023-04-20T02:16:43.433Z,98960.53
2023-04-20T02:19:28.419Z,98959.94
2023-04-20T02:22:13.500Z,98962.47
2023-04-20T02:24:58.421Z,98962.47
2023-04-20T02:27:43.021Z,98959.56
2023-04-20T02:30:30.323Z,98964.03
2023-04-20T02:33:15.031Z,98956.38
2023-04-20T02:36:00.284Z,98957.38
2023-04-20T02:38:45.001Z,98956.00
2023-04-20T02:41:29.930Z,98953.47
2023-04-20T02:44:15.010Z,98946.78
2023-04-20T02:47:00.000Z,98958.94
2023-04-20T02:49:44.902Z,98944.03
2023-04-20T02:52:31.225Z,98953.06
2023-04-20T02:55:18.296Z,98959.53
2023-04-20T02:58:06.550Z,98954.06
2023-04-20T03:01:11.343Z,98947.34
2023-04-20T03:03:56.988Z,98959.72
2023-04-20T03:06:42.102Z,98951.88
2023-04-20T03:09:32.363Z,98949.91
2023-04-20T03:12:23.087Z,98949.91
2023-04-20T03:15:37.327Z,98948.31
2023-04-20T03:18:43.464Z,98957.97
2023-04-20T03:21:28.305Z,98957.16
2023-04-20T03:24:13.171Z,98957.00
2023-04-20T03:26:58.232Z,98963.84
2023-04-20T03:29:54.278Z,98959.34
2023-04-20T03:32:41.340Z,98954.63
2023-04-20T03:35:26.657Z,98953.06
2023-04-20T03:38:11.623Z,98957.19
2023-04-20T03:40:56.504Z,98956.41
2023-04-20T03:43:41.584Z,98954.44
2023-04-20T03:46:28.045Z,98956.81
2023-04-20T03:49:12.933Z,98955.22
2023-04-20T03:51:58.539Z,98948.69
2023-04-20T03:54:43.448Z,98956.94
2023-04-20T03:57:33.179Z,98961.28
2023-04-20T04:00:19.948Z,98952.03
2023-04-20T04:03:05.477Z,98952.38
2023-04-20T04:05:50.609Z,98954.91
2023-04-20T04:08:35.875Z,98946.41
2023-04-20T04:11:21.299Z,98954.38
2023-04-20T04:14:06.363Z,98946.81
2023-04-20T04:16:53.815Z,98945.47
2023-04-20T04:19:39.350Z,98944.94
2023-04-20T04:22:24.206Z,98942.00
2023-04-20T04:25:33.041Z,98934.50
2023-04-20T04:28:17.918Z,98943.00
2023-04-20T04:31:13.470Z,98948.94
2023-04-20T04:33:58.397Z,98949.34
2023-04-20T04:36:47.924Z,98949.53
2023-04-20T04:39:38.298Z,98948.38
2023-04-20T04:42:30.446Z,98945.88
2023-04-20T04:45:18.388Z,98940.78
2023-04-20T04:48:06.067Z,98942.59
2023-04-20T04:50:53.111Z,98939.53
2023-04-20T04:53:37.889Z,98934.88
2023-04-20T04:56:22.916Z,98933.09
2023-04-20T04:59:08.071Z,98935.91
2023-04-20T05:01:52.965Z,98934.91
2023-04-20T05:04:38.094Z,98933.13
2023-04-20T05:07:24.134Z,98933.34
2023-04-20T05:10:10.353Z,98932.81
2023-04-20T05:12:55.172Z,98933.66
2023-04-20T05:15:40.607Z,98925.41
2023-04-20T05:18:26.621Z,98932.78
2023-04-20T05:21:12.041Z,98932.53
2023-04-20T05:23:57.008Z,98930.59
2023-04-20T05:26:43.375Z,98923.78
2023-04-20T05:29:52.246Z,98929.56
2023-04-20T05:32:37.109Z,98930.78
2023-04-20T05:35:22.278Z,98920.78
2023-04-20T05:38:07.467Z,98930.06
2023-04-20T05:40:52.406Z,98928.66
2023-04-20T05:43:37.258Z,98925.72
2023-04-20T05:46:22.947Z,98928.28
2023-04-20T05:49:08.019Z,98923.59
2023-04-20T05:51:52.975Z,98928.22
2023-04-20T05:54:38.105Z,98918.94
2023-04-20T05:57:23.997Z,98924.63
2023-04-20T06:00:14.774Z,98922.53
2023-04-20T06:02:59.844Z,98920.28
2023-04-20T06:05:44.976Z,98929.50
2023-04-20T06:08:30.252Z,98918.53
2023-04-20T06:11:15.038Z,98916.75
2023-04-20T06:14:00.735Z,98913.25
2023-04-20T06:16:45.613Z,98919.81
2023-04-20T06:19:30.689Z,98912.41
2023-04-20T06:22:16.279Z,98923.47
2023-04-20T06:25:02.198Z,98910.78
2023-04-20T06:27:47.203Z,98916.59
2023-04-20T06:30:35.682Z,98907.63
2023-04-20T06:33:20.578Z,98910.72
2023-04-20T06:36:08.723Z,98906.56
2023-04-20T06:38:54.672Z,98911.06
2023-04-20T06:41:39.396Z,98908.66
2023-04-20T06:44:30.984Z,98909.22
2023-04-20T06:47:16.461Z,98913.16
2023-04-20T06:50:16.471Z,98912.47
2023-04-20T06:53:04.494Z,98907.66
2023-04-20T06:55:50.080Z,98906.91
2023-04-20T06:58:34.784Z,98912.25
2023-04-20T07:01:19.900Z,98913.44
2023-04-20T07:04:05.054Z,98900.25
2023-04-20T07:06:52.494Z,98915.16
2023-04-20T07:09:39.489Z,98915.91
2023-04-20T07:16:54.263Z,98921.94
2023-04-20T07:19:41.683Z,98926.66
2023-04-20T07:22:30.183Z,98923.25
2023-04-20T07:25:19.730Z,98910.25
2023-04-20T07:28:09.973Z,98914.38
2023-04-20T07:30:54.880Z,98898.84
2023-04-20T07:33:39.966Z,98912.09
2023-04-20T07:36:36.537Z,98915.16
2023-04-20T07:39:26.705Z,98902.00
2023-04-20T07:42:40.158Z,98912.06
2023-04-20T07:45:27.431Z,98905.28
2023-04-20T07:51:44.662Z,98884.47
2023-04-20T07:54:30.042Z,98900.91
2023-04-20T07:57:15.377Z,98904.56
2023-04-20T08:00:01.877Z,98913.88
2023-04-20T08:02:58.164Z,98906.66
2023-04-20T08:05:43.603Z,98894.22
2023-04-20T08:08:29.665Z,98917.28
2023-04-20T08:11:18.161Z,98908.75
2023-04-20T08:14:03.389Z,98911.34
2023-04-20T08:16:55.007Z,98914.72
2023-04-20T08:19:41.201Z,98904.34
2023-04-20T08:22:29.481Z,98914.69
2023-04-20T08:25:14.325Z,98900.91
2023-04-20T08:27:59.203Z,98896.69
2023-04-20T08:30:49.650Z,98895.44
2023-04-20T08:34:02.101Z,98893.22
2023-04-20T08:36:47.022Z,98895.72
2023-04-20T08:39:32.116Z,98892.19
2023-04-20T08:42:17.137Z,98905.22
2023-04-20T08:45:04.452Z,98902.00
2023-04-20T08:47:49.654Z,98903.09
2023-04-20T08:50:36.373Z,98906.00
2023-04-20T08:53:22.105Z,98905.59
2023-04-20T08:56:07.925Z,98902.78
2023-04-20T08:58:52.965Z,98919.09
2023-04-20T09:01:41.624Z,98923.19
2023-04-20T09:04:26.754Z,98935.00
2023-04-20T09:07:21.523Z,98938.25
2023-04-20T09:10:06.582Z,98932.13
2023-04-20T09:12:52.196Z,98938.09
2023-04-20T09:15:36.986Z,98933.91
2023-04-20T09:18:24.065Z,98937.13
2023-04-20T09:21:10.396Z,98942.91
2023-04-20T09:24:03.647Z,98946.44
2023-04-20T09:26:49.120Z,98943.06
2023-04-20T09:29:34.826Z,98945.97
2023-04-20T09:32:24.241Z,98940.81
2023-04-20T09:35:11.057Z,98945.81
2023-04-20T09:37:55.614Z,98940.94
2023-04-20T09:40:40.838Z,98938.06
2023-04-20T09:43:45.050Z,98929.72
2023-04-20T09:46:55.667Z,98933.56
2023-04-20T09:49:38.655Z,98928.41
2023-04-20T09:52:25.195Z,98942.78
2023-04-20T09:55:10.774Z,98938.97
2023-04-20T09:57:56.522Z,98937.75
2023-04-20T10:00:41.785Z,98941.59
2023-04-20T10:03:26.772Z,98939.84
2023-04-20T10:06:22.932Z,98952.81
2023-04-20T10:09:22.470Z,98960.09
2023-04-20T10:12:08.984Z,98957.28
2023-04-20T10:14:57.369Z,98963.50
2023-04-20T10:17:43.611Z,98953.03
2023-04-20T10:20:29.007Z,98964.44
2023-04-20T10:23:49.930Z,98945.97
2023-04-20T10:26:42.950Z,98963.75
2023-04-20T10:29:29.000Z,98947.69
2023-04-20T10:32:25.229Z,98959.38
2023-04-20T10:35:11.010Z,98941.41
2023-04-20T10:37:56.113Z,98949.31
2023-04-20T10:40:41.968Z,98956.16
2023-04-20T10:43:26.696Z,98955.63
2023-04-20T10:46:28.015Z,98956.72
2023-04-20T10:49:13.103Z,98950.25
2023-04-20T10:51:58.472Z,98942.72
2023-04-20T10:54:43.078Z,98942.69
2023-04-20T10:57:28.287Z,98942.97
2023-04-20T11:00:17.539Z,98939.72
2023-04-20T11:03:02.801Z,98946.78
2023-04-20T11:05:49.801Z,98943.88
2023-04-20T11:08:42.593Z,98948.06
2023-04-20T11:11:27.862Z,98951.72
2023-04-20T11:14:13.030Z,98962.19
2023-04-20T11:16:57.734Z,98957.25
2023-04-20T11:19:42.840Z,98965.56
2023-04-20T11:22:28.046Z,98950.75
2023-04-20T11:25:13.430Z,98958.81
2023-04-20T11:28:07.026Z,98956.38
2023-04-20T11:30:52.188Z,98958.03
2023-04-20T11:33:37.410Z,98957.84
2023-04-20T11:36:23.931Z,98948.44
2023-04-20T11:39:13.446Z,98957.03
2023-04-20T11:41:58.864Z,98956.69
2023-04-20T11:44:43.614Z,98958.22
2023-04-20T11:47:28.593Z,98960.34
2023-04-20T11:50:13.782Z,98954.00
2023-04-20T11:52:58.758Z,98963.25
2023-04-20T11:55:43.191Z,98971.41
2023-04-20T11:58:27.879Z,98958.78
2023-04-20T12:01:13.444Z,98955.09
2023-04-20T12:04:01.221Z,98951.97
2023-04-20T12:06:46.099Z,98947.78
2023-04-20T12:09:35.533Z,98939.53
2023-04-20T12:12:20.251Z,98933.47
2023-04-20T12:15:06.065Z,98935.34
2023-04-20T12:17:51.062Z,98937.72
2023-04-20T12:20:36.198Z,98932.03
2023-04-20T12:23:20.943Z,98931.47
2023-04-20T12:26:06.368Z,98927.88
2023-04-20T12:28:50.994Z,98931.25
2023-04-20T12:31:36.045Z,98921.91
2023-04-20T12:34:21.321Z,98920.88
2023-04-20T12:37:06.464Z,98924.19
2023-04-20T12:39:51.392Z,98920.59
2023-04-20T12:42:36.125Z,98911.00
2023-04-20T12:45:21.148Z,98919.03
2023-04-20T12:48:06.134Z,98924.19
2023-04-20T12:50:51.479Z,98921.06
2023-04-20T12:53:36.416Z,98910.94
2023-04-20T12:56:21.507Z,98903.69
2023-04-20T12:59:06.606Z,98912.00
2023-04-20T13:01:51.741Z,98911.50
2023-04-20T13:04:36.674Z,98909.94
2023-04-20T13:07:21.560Z,98918.00
2023-04-20T13:10:07.107Z,98916.38
2023-04-20T13:12:52.218Z,98912.44
2023-04-20T13:15:39.081Z,98916.44
2023-04-20T13:18:24.899Z,98910.50
2023-04-20T13:21:10.106Z,98924.63
2023-04-20T13:23:56.841Z,98917.03
2023-04-20T13:26:41.931Z,98930.66
2023-04-20T13:29:27.213Z,98935.97
2023-04-20T13:32:12.168Z,98930.69
2023-04-20T13:34:57.069Z,98905.28
2023-04-20T13:37:43.847Z,98914.38
2023-04-20T13:40:29.234Z,98910.09
2023-04-20T13:43:14.020Z,98926.50
2023-04-20T13:45:59.031Z,98922.69
2023-04-20T13:48:44.182Z,98923.50
2023-04-20T13:51:29.121Z,98919.50
2023-04-20T13:54:13.805Z,98915.66
2023-04-20T13:56:58.467Z,98901.19
2023-04-20T13:59:43.131Z,98906.66
2023-04-20T14:02:28.969Z,98902.22
2023-04-20T14:05:13.748Z,98895.47
2023-04-20T14:08:00.891Z,98899.84
2023-04-20T14:10:45.754Z,98899.03
2023-04-20T14:13:31.409Z,98894.41
2023-04-20T14:16:16.276Z,98905.50
2023-04-20T14:19:01.310Z,98906.31
2023-04-20T14:21:46.769Z,98900.66
2023-04-20T14:24:31.816Z,98905.09
2023-04-20T14:27:16.873Z,98905.91
2023-04-20T14:30:03.283Z,98899.69
2023-04-20T14:32:59.597Z,98905.94
2023-04-20T14:35:45.741Z,98909.28
2023-04-20T14:38:30.767Z,98909.78
2023-04-20T14:41:16.326Z,98904.88
2023-04-20T14:44:01.583Z,98909.53
2023-04-20T14:46:46.370Z,98912.38
2023-04-20T14:49:31.369Z,98910.09
2023-04-20T14:52:16.578Z,98908.00
2023-04-20T14:55:02.014Z,98914.25
2023-04-20T14:57:46.586Z,98916.06
2023-04-20T15:00:31.708Z,98914.78
2023-04-20T15:03:17.357Z,98917.66
2023-04-20T15:06:03.012Z,98915.38
2023-04-20T15:08:48.243Z,98918.28
2023-04-20T15:11:33.269Z,98919.59
2023-04-20T15:14:18.338Z,98923.00
2023-04-20T15:17:03.669Z,98924.03
2023-04-20T15:19:48.529Z,98925.31
2023-04-20T15:22:33.036Z,98927.41
2023-04-20T15:25:18.119Z,98933.38
2023-04-20T15:28:03.211Z,98926.13
2023-04-20T15:30:48.043Z,98927.69
2023-04-20T15:33:33.225Z,98938.81
2023-04-20T15:36:19.138Z,98938.03
2023-04-20T15:39:04.259Z,98920.41
2023-04-20T15:41:50.953Z,98935.91
2023-04-20T15:44:35.750Z,98938.22
2023-04-20T15:47:20.892Z,98937.75
2023-04-20T15:50:06.382Z,98932.59
2023-04-20T15:52:53.294Z,98934.16
2023-04-20T15:55:39.360Z,98926.63
2023-04-20T15:58:24.204Z,98935.66
2023-04-20T16:01:09.774Z,98935.91
2023-04-20T16:03:54.681Z,98925.50
2023-04-20T16:06:42.529Z,98930.66
2023-04-20T16:09:27.584Z,98922.84
2023-04-20T16:12:12.806Z,98915.00
2023-04-20T16:14:57.612Z,98914.22
2023-04-20T16:17:43.901Z,98905.88
2023-04-20T16:20:28.689Z,98905.06
2023-04-20T16:23:13.738Z,98903.75
2023-04-20T16:25:58.581Z,98902.94
2023-04-20T16:28:43.594Z,98905.75
2023-04-20T16:31:29.172Z,98910.63
2023-04-20T16:34:13.962Z,98905.91
2023-04-20T16:36:59.147Z,98915.19
2023-04-20T16:39:44.531Z,98921.88
2023-04-20T16:42:29.136Z,98924.41
2023-04-20T16:45:13.923Z,98922.03
2023-04-20T16:47:58.699Z,98913.69
2023-04-20T16:50:43.758Z,98914.13
2023-04-20T16:53:28.578Z,98918.69
2023-04-20T16:56:14.203Z,98909.81
2023-04-20T16:58:58.832Z,98913.63
2023-04-20T17:01:43.815Z,98911.22
2023-04-20T17:04:28.801Z,98898.47
2023-04-20T17:07:13.793Z,98901.97
2023-04-20T17:09:59.149Z,98898.28
2023-04-20T17:12:43.907Z,98891.28
2023-04-20T17:15:28.832Z,98896.41
2023-04-20T17:18:13.749Z,98892.50
2023-04-20T17:21:01.776Z,98897.34
2023-04-20T17:23:47.013Z,98894.97
2023-04-20T17:26:32.141Z,98901.31
2023-04-20T17:29:17.105Z,98905.09
2023-04-20T17:32:02.234Z,98899.78
2023-04-20T17:34:47.749Z,98893.81
2023-04-20T17:37:34.775Z,98894.81
2023-04-20T17:40:19.801Z,98895.59
2023-04-20T17:43:04.683Z,98892.50
2023-04-20T17:45:50.088Z,98892.25
2023-04-20T17:48:34.891Z,98884.25
2023-04-20T17:51:19.666Z,98885.88
2023-04-20T17:54:06.276Z,98895.72
2023-04-20T17:56:51.145Z,98887.75
2023-04-20T17:59:36.290Z,98887.19
2023-04-20T18:02:23.928Z,98887.19
2023-04-20T18:05:09.355Z,98874.56
2023-04-20T18:07:54.014Z,98882.50
2023-04-20T18:10:39.153Z,98873.19
2023-04-20T18:13:24.032Z,98876.69
2023-04-20T18:16:08.985Z,98885.16
2023-04-20T18:18:54.130Z,98878.69
2023-04-20T18:21:39.074Z,98875.53
2023-04-20T18:24:24.115Z,98873.53
2023-04-20T18:27:09.343Z,98877.63
2023-04-20T18:29:55.606Z,98860.91
2023-04-20T18:32:40.911Z,98849.75
2023-04-20T18:35:26.135Z,98852.03
2023-04-20T18:38:11.063Z,98844.53
2023-04-20T18:40:56.042Z,98849.16
2023-04-20T18:43:40.267Z,98845.31
2023-04-20T18:46:25.298Z,98841.16
2023-04-20T18:49:11.904Z,98842.97
2023-04-20T18:51:56.570Z,98842.50
2023-04-20T18:54:41.506Z,98833.41
2023-04-20T18:57:28.165Z,98829.78
2023-04-20T19:00:13.635Z,98836.72
2023-04-20T19:02:58.518Z,98837.97
2023-04-20T19:05:43.372Z,98830.78
2023-04-20T19:08:28.333Z,98830.78
2023-04-20T19:11:13.308Z,98830.25
2023-04-20T19:13:58.195Z,98831.97
2023-04-20T19:16:43.191Z,98828.53
2023-04-20T19:19:28.255Z,98829.78
2023-04-20T19:22:13.140Z,98834.41
2023-04-20T19:24:58.029Z,98829.25
2023-04-20T19:27:42.931Z,98826.94
2023-04-20T19:30:27.909Z,98818.94
2023-04-20T19:33:12.817Z,98815.38
2023-04-20T19:35:58.684Z,98813.78
2023-04-20T19:38:43.249Z,98812.06
2023-04-20T19:41:28.210Z,98813.38
2023-04-20T19:44:13.954Z,98817.28
2023-04-20T19:46:58.607Z,98806.50
2023-04-20T19:49:43.482Z,98807.34
2023-04-20T19:52:28.319Z,98804.25
2023-04-20T19:55:13.253Z,98806.31
2023-04-20T19:57:58.142Z,98803.72
2023-04-20T20:00:43.077Z,98805.56
2023-04-20T20:03:28.139Z,98807.94
2023-04-20T20:06:13.059Z,98805.91
2023-04-20T20:08:58.301Z,98800.00
2023-04-20T20:11:49.683Z,98803.47
2023-04-20T20:14:35.510Z,98814.38
2023-04-20T20:17:22.286Z,98795.84
2023-04-20T20:20:08.206Z,98796.69
2023-04-20T20:22:53.078Z,98799.00
2023-04-20T20:25:38.857Z,98798.69
2023-04-20T20:28:23.424Z,98793.97
2023-04-20T20:31:08.616Z,98796.75
2023-04-20T20:33:53.570Z,98793.63
2023-04-20T20:36:41.846Z,98789.47
2023-04-20T20:39:26.603Z,98786.31
2023-04-20T20:42:12.013Z,98782.41
2023-04-20T20:44:59.774Z,98777.34
2023-04-20T20:47:45.184Z,98774.78
2023-04-20T20:50:30.369Z,98766.44
2023-04-20T20:53:16.898Z,98774.91
2023-04-20T20:56:02.242Z,98775.78
2023-04-20T20:58:47.281Z,98771.69
2023-04-20T21:01:32.367Z,98781.91
2023-04-20T21:04:17.357Z,98772.69
2023-04-20T21:07:02.735Z,98777.69
2023-04-20T21:09:47.275Z,98768.09
2023-04-20T21:12:32.734Z,98773.94
2023-04-20T21:15:17.385Z,98770.03
2023-04-20T21:18:02.584Z,98771.50
2023-04-20T21:20:47.436Z,98768.41
2023-04-20T21:23:32.304Z,98764.50
2023-04-20T21:26:17.449Z,98765.97
2023-04-20T21:29:02.906Z,98762.13
2023-04-20T21:31:47.972Z,98766.81
2023-04-20T21:34:32.852Z,98763.78
2023-04-20T21:37:18.008Z,98757.56
2023-04-20T21:40:03.200Z,98761.06
2023-04-20T21:42:48.276Z,98760.44
2023-04-20T21:45:32.853Z,98756.75
2023-04-20T21:48:18.019Z,98759.50
2023-04-20T21:51:03.134Z,98754.28
2023-04-20T21:53:47.794Z,98747.31
2023-04-20T21:56:45.952Z,98749.50
2023-04-20T21:59:30.756Z,98738.34
2023-04-20T22:02:15.991Z,98747.00
2023-04-20T22:05:00.613Z,98745.44
2023-04-20T22:07:46.102Z,98737.25
2023-04-20T22:10:30.700Z,98749.25
2023-04-20T22:13:16.308Z,98740.59
2023-04-20T22:16:01.248Z,98746.19
2023-04-20T22:18:46.885Z,98748.53
2023-04-20T22:21:31.586Z,98742.81
2023-04-20T22:24:16.555Z,98738.38
2023-04-20T22:27:01.728Z,98732.38
2023-04-20T22:29:46.751Z,98738.09
2023-04-20T22:32:31.942Z,98734.63
2023-04-20T22:35:16.766Z,98745.56
2023-04-20T22:38:01.804Z,98734.06
2023-04-20T22:40:46.699Z,98736.53
2023-04-20T22:43:31.659Z,98737.34
2023-04-20T22:46:16.661Z,98734.75
2023-04-20T22:49:01.384Z,98735.66
2023-04-20T22:51:47.019Z,98735.56
2023-04-20T22:54:32.013Z,98741.66
2023-04-20T22:57:17.640Z,98735.94
2023-04-20T23:00:07.240Z,98740.88
2023-04-20T23:02:52.136Z,98743.19
2023-04-20T23:05:38.481Z,98735.19
2023-04-20T23:08:25.063Z,98739.88
2023-04-20T23:11:10.527Z,98738.41
2023-04-20T23:13:55.647Z,98741.91
2023-04-20T23:16:40.993Z,98733.78
2023-04-20T23:19:25.877Z,98740.84
2023-04-20T23:22:10.933Z,98743.31
2023-04-20T23:24:56.838Z,98740.41
2023-04-20T23:27:41.756Z,98730.38
2023-04-20T23:30:26.800Z,98730.03
2023-04-20T23:33:11.826Z,98734.53
2023-04-20T23:35:59.769Z,98731.06
2023-04-20T23:38:44.502Z,98732.94
2023-04-20T23:41:29.826Z,98732.53
2023-04-20T23:44:14.799Z,98731.59
2023-04-20T23:46:59.673Z,98724.34
2023-04-20T23:49:44.628Z,98722.00
2023-04-20T23:52:30.253Z,98729.47
2023-04-20T23:55:15.390Z,98727.91
2023-04-20T23:58:00.275Z,98730.38
